Time;durP1;ratioP1;P1;durP2;ratioP2;P2;SDS_P1;SDS_P2;PMS_P1;PMS_P2;Temp;Humidity;BMP_temperature;BMP_pressure;BME280_temperature;BME280_humidity;BME280_pressure;Samples;Min_cycle;Max_cycle;Signal;HPM_P1;HPM_P2
2021/05/26 00:00:15;;;;;;;6.63;4.80;;;12.00;99.90;;;;;;5055825;28;20460;-82
2021/05/26 00:02:41;;;;;;;5.77;4.37;;;12.00;99.90;;;;;;5039811;28;21050;-79
2021/05/26 00:05:09;;;;;;;4.37;3.20;;;11.80;99.90;;;;;;5050723;28;20981;-80
2021/05/26 00:07:36;;;;;;;5.77;3.57;;;11.80;99.90;;;;;;5051385;28;20454;-80
2021/05/26 00:10:04;;;;;;;6.40;4.03;;;11.90;99.90;;;;;;5052475;28;20480;-81
2021/05/26 00:12:31;;;;;;;3.70;3.13;;;12.00;99.90;;;;;;5051769;28;20453;-79
2021/05/26 00:14:58;;;;;;;5.30;3.77;;;12.00;99.90;;;;;;5050081;28;20503;-81
2021/05/26 00:17:25;;;;;;;4.57;2.97;;;11.90;99.90;;;;;;5048170;28;20453;-80
2021/05/26 00:19:51;;;;;;;3.60;3.30;;;12.00;99.90;;;;;;5049392;28;20510;-81
2021/05/26 00:22:18;;;;;;;3.87;2.90;;;11.90;99.90;;;;;;5033606;28;20455;-81
2021/05/26 00:24:45;;;;;;;7.00;3.97;;;11.90;99.90;;;;;;5050614;28;20481;-80
2021/05/26 00:27:11;;;;;;;4.97;3.50;;;11.90;99.90;;;;;;5051830;28;20538;-80
2021/05/26 00:29:38;;;;;;;5.50;3.67;;;12.00;99.90;;;;;;5035263;28;20476;-81
2021/05/26 00:32:05;;;;;;;5.23;3.93;;;12.00;99.90;;;;;;5050735;28;20449;-81
2021/05/26 00:34:32;;;;;;;6.97;4.00;;;11.90;99.90;;;;;;5048912;28;20487;-80
2021/05/26 00:36:59;;;;;;;7.07;4.17;;;11.80;99.90;;;;;;5050513;28;20456;-81
2021/05/26 00:39:25;;;;;;;4.77;3.77;;;11.90;99.90;;;;;;5053014;28;20476;-82
2021/05/26 00:41:52;;;;;;;4.63;4.10;;;12.10;99.90;;;;;;4705609;28;10000335;-82
2021/05/26 00:44:19;;;;;;;5.13;4.20;;;12.00;99.90;;;;;;5044754;28;20491;-81
2021/05/26 00:46:46;;;;;;;6.83;4.87;;;12.00;99.90;;;;;;5063067;28;20459;-81
2021/05/26 00:49:13;;;;;;;4.83;4.40;;;12.10;99.90;;;;;;5063802;28;20488;-81
2021/05/26 00:51:39;;;;;;;4.47;3.73;;;11.90;99.90;;;;;;5062751;28;21896;-80
2021/05/26 00:54:06;;;;;;;6.83;4.80;;;12.00;99.90;;;;;;5058960;28;20482;-79
2021/05/26 00:56:34;;;;;;;10.17;4.83;;;12.00;99.90;;;;;;5056773;28;20452;-80
2021/05/26 00:59:07;;;;;;;6.43;4.17;;;11.90;99.90;;;;;;5058692;28;20525;-81
2021/05/26 01:01:34;;;;;;;5.70;5.00;;;11.90;99.90;;;;;;5063840;28;20487;-80
2021/05/26 01:04:02;;;;;;;5.03;4.40;;;11.90;99.90;;;;;;5040205;28;20505;-80
2021/05/26 01:06:28;;;;;;;5.97;4.60;;;11.80;99.90;;;;;;5055030;28;20555;-80
2021/05/26 01:08:55;;;;;;;5.37;4.20;;;11.80;99.90;;;;;;5038641;28;20498;-80
2021/05/26 01:11:22;;;;;;;6.07;4.20;;;11.90;99.90;;;;;;5038391;28;20447;-81
2021/05/26 01:13:49;;;;;;;5.33;4.10;;;11.80;99.90;;;;;;5038921;28;20472;-80
2021/05/26 01:16:16;;;;;;;5.13;4.03;;;12.00;99.90;;;;;;5037954;28;20440;-79
2021/05/26 01:18:42;;;;;;;6.47;4.50;;;11.80;99.90;;;;;;5060420;28;20452;-80
2021/05/26 01:21:12;;;;;;;4.77;3.30;;;11.80;99.90;;;;;;5068598;28;20460;-81
2021/05/26 01:23:40;;;;;;;5.00;3.33;;;11.80;99.90;;;;;;5065735;28;20475;-82
2021/05/26 01:26:08;;;;;;;4.40;3.37;;;11.70;99.90;;;;;;5052150;28;20456;-80
2021/05/26 01:28:36;;;;;;;4.17;3.40;;;12.00;99.90;;;;;;5065311;28;20482;-82
2021/05/26 01:31:03;;;;;;;6.00;3.30;;;12.00;99.90;;;;;;5038422;28;21261;-79
2021/05/26 01:33:31;;;;;;;6.37;3.53;;;11.90;99.90;;;;;;5051665;28;21415;-79
2021/05/26 01:35:58;;;;;;;4.63;3.23;;;11.80;99.90;;;;;;5049158;28;20475;-79
2021/05/26 01:38:25;;;;;;;5.53;2.80;;;12.10;99.90;;;;;;5051312;28;20452;-79
2021/05/26 01:40:57;;;;;;;3.33;2.97;;;12.00;99.90;;;;;;5036813;28;20482;-80
2021/05/26 01:43:25;;;;;;;10.23;3.50;;;12.20;99.90;;;;;;5039589;28;20509;-80
2021/05/26 01:45:52;;;;;;;9.33;2.80;;;12.10;99.90;;;;;;5049164;28;20444;-80
2021/05/26 01:48:19;;;;;;;4.70;3.03;;;12.00;99.90;;;;;;5049963;28;21027;-80
2021/05/26 01:50:46;;;;;;;6.30;3.97;;;12.20;99.90;;;;;;5049829;28;20448;-82
2021/05/26 01:53:13;;;;;;;3.40;2.80;;;12.10;99.90;;;;;;5035875;28;20460;-80
2021/05/26 01:55:40;;;;;;;8.57;3.37;;;12.10;99.90;;;;;;5046995;28;20452;-79
2021/05/26 01:58:07;;;;;;;3.63;2.77;;;12.20;99.90;;;;;;5049476;28;20452;-80
2021/05/26 02:00:35;;;;;;;3.03;2.57;;;12.20;99.90;;;;;;5035523;28;20456;-80
2021/05/26 02:03:01;;;;;;;4.57;2.93;;;12.20;99.90;;;;;;5049742;28;20448;-81
2021/05/26 02:05:28;;;;;;;6.83;3.27;;;12.10;99.90;;;;;;5048772;28;20460;-80
2021/05/26 02:07:55;;;;;;;6.63;2.67;;;12.10;99.90;;;;;;5048406;28;20472;-80
2021/05/26 02:13:07;;;;;;;4.20;2.87;;;11.90;99.90;;;;;;5046444;28;20440;-80
2021/05/26 02:15:34;;;;;;;10.47;2.67;;;11.90;99.90;;;;;;5046503;28;20846;-79
2021/05/26 02:18:01;;;;;;;3.63;2.33;;;11.80;99.90;;;;;;5035893;28;20464;-80
2021/05/26 02:20:28;;;;;;;2.60;2.40;;;11.80;99.90;;;;;;5048077;28;20448;-81
2021/05/26 02:22:54;;;;;;;3.73;2.87;;;11.70;99.90;;;;;;5048560;28;20463;-81
2021/05/26 02:25:21;;;;;;;5.03;2.80;;;11.70;99.90;;;;;;5046869;28;20483;-80
2021/05/26 02:27:48;;;;;;;5.13;2.93;;;11.60;99.90;;;;;;5037920;28;21888;-79
2021/05/26 02:30:15;;;;;;;6.90;2.97;;;11.80;99.90;;;;;;5038564;28;20484;-79
2021/05/26 02:32:42;;;;;;;9.47;3.40;;;11.80;99.90;;;;;;5053224;28;20477;-80
2021/05/26 02:35:10;;;;;;;4.83;3.00;;;11.80;99.90;;;;;;5045121;28;20499;-80
2021/05/26 02:37:39;;;;;;;7.57;3.00;;;11.90;99.90;;;;;;5064586;28;20447;-80
2021/05/26 02:40:07;;;;;;;5.73;2.97;;;11.80;99.90;;;;;;5059657;28;20460;-80
2021/05/26 02:42:33;;;;;;;4.77;2.37;;;11.70;99.90;;;;;;5052160;28;20452;-80
2021/05/26 02:45:00;;;;;;;3.40;2.87;;;11.70;99.90;;;;;;5050704;28;20830;-81
2021/05/26 02:47:27;;;;;;;3.97;2.60;;;11.60;99.90;;;;;;5052315;28;20534;-80
2021/05/26 02:49:54;;;;;;;6.83;3.30;;;11.50;99.90;;;;;;5049836;28;20464;-80
2021/05/26 02:52:20;;;;;;;6.60;3.13;;;11.50;99.90;;;;;;5050454;28;20456;-81
2021/05/26 02:54:47;;;;;;;11.33;2.93;;;11.60;99.90;;;;;;5048105;28;20584;-80
2021/05/26 02:57:14;;;;;;;7.13;2.60;;;11.50;99.90;;;;;;5035584;28;20809;-80
2021/05/26 02:59:40;;;;;;;4.57;3.13;;;11.60;99.90;;;;;;5034470;28;20455;-81
2021/05/26 03:02:07;;;;;;;10.20;3.47;;;11.60;99.90;;;;;;5048414;28;20465;-81
2021/05/26 03:04:34;;;;;;;4.60;2.50;;;11.60;99.90;;;;;;5047854;28;20464;-82
2021/05/26 03:07:00;;;;;;;10.07;3.13;;;11.60;99.90;;;;;;5049995;28;20461;-81
2021/05/26 03:09:27;;;;;;;5.10;2.60;;;11.60;99.90;;;;;;5053372;28;20474;-79
2021/05/26 03:11:53;;;;;;;6.80;2.90;;;11.40;99.90;;;;;;5063501;28;20432;-81
2021/05/26 03:14:20;;;;;;;12.50;3.27;;;11.50;99.90;;;;;;5073898;28;20461;-81
2021/05/26 03:16:47;;;;;;;6.50;3.30;;;11.50;99.90;;;;;;5062996;28;20447;-81
2021/05/26 03:19:13;;;;;;;3.73;3.00;;;11.50;99.90;;;;;;5056801;28;20449;-80
2021/05/26 03:21:41;;;;;;;4.60;2.90;;;11.50;99.90;;;;;;5070352;28;20453;-80
2021/05/26 03:24:08;;;;;;;5.53;4.00;;;11.50;99.90;;;;;;5073906;28;20516;-79
2021/05/26 03:26:34;;;;;;;6.40;3.20;;;11.50;99.90;;;;;;5046596;28;20445;-79
2021/05/26 03:29:01;;;;;;;3.73;2.90;;;11.40;99.90;;;;;;5058886;28;20470;-80
2021/05/26 03:31:30;;;;;;;5.10;3.23;;;11.50;99.90;;;;;;5053577;28;20442;-82
2021/05/26 03:33:57;;;;;;;7.27;3.40;;;11.60;99.90;;;;;;5070559;28;20495;-81
2021/05/26 03:36:24;;;;;;;4.87;3.13;;;11.60;99.90;;;;;;5066101;28;20455;-80
2021/05/26 03:38:51;;;;;;;6.07;3.20;;;11.50;99.90;;;;;;5066130;28;20460;-81
2021/05/26 03:41:17;;;;;;;6.03;3.10;;;11.60;99.90;;;;;;5055644;28;20447;-81
2021/05/26 03:43:44;;;;;;;3.80;3.37;;;11.50;99.90;;;;;;5048175;28;20469;-80
2021/05/26 03:46:11;;;;;;;8.93;3.60;;;11.60;99.90;;;;;;5041186;28;20456;-80
2021/05/26 03:48:38;;;;;;;5.93;3.90;;;11.60;99.90;;;;;;5030619;28;20449;-80
2021/05/26 03:51:05;;;;;;;5.60;3.20;;;11.50;99.90;;;;;;5054535;28;20453;-80
2021/05/26 03:53:31;;;;;;;5.50;3.13;;;11.40;99.90;;;;;;5061836;28;20471;-81
2021/05/26 03:55:58;;;;;;;6.73;3.20;;;11.40;99.90;;;;;;5030224;28;20449;-81
2021/05/26 03:58:25;;;;;;;3.27;2.57;;;11.50;99.90;;;;;;5056736;28;20490;-80
2021/05/26 04:00:53;;;;;;;3.23;2.90;;;11.50;99.90;;;;;;5054954;28;20455;-81
2021/05/26 04:03:24;;;;;;;5.07;3.17;;;11.40;99.90;;;;;;5056919;28;20505;-81
2021/05/26 04:05:50;;;;;;;7.70;3.40;;;11.40;99.90;;;;;;5061173;28;20451;-81
2021/05/26 04:08:17;;;;;;;4.63;3.17;;;11.40;99.90;;;;;;5071245;28;20440;-80
2021/05/26 04:10:44;;;;;;;3.30;3.00;;;11.40;99.90;;;;;;5065913;28;20465;-80
2021/05/26 04:13:10;;;;;;;6.07;3.00;;;11.40;99.90;;;;;;5071486;28;20438;-80
2021/05/26 04:15:37;;;;;;;3.40;3.07;;;11.40;99.90;;;;;;5062832;28;20508;-79
2021/05/26 04:18:05;;;;;;;3.53;3.20;;;11.50;99.90;;;;;;5060979;28;20456;-80
2021/05/26 04:20:33;;;;;;;3.83;2.93;;;11.50;99.90;;;;;;5054226;28;20437;-79
2021/05/26 04:23:00;;;;;;;6.73;2.60;;;11.50;99.90;;;;;;5060787;28;20451;-80
2021/05/26 04:25:27;;;;;;;3.80;2.97;;;11.50;99.90;;;;;;5052818;28;20468;-81
2021/05/26 04:27:54;;;;;;;2.60;2.37;;;11.50;99.90;;;;;;5044616;28;20495;-81
2021/05/26 04:30:21;;;;;;;4.27;2.17;;;11.40;99.90;;;;;;5067351;28;20492;-80
2021/05/26 04:32:47;;;;;;;3.33;2.33;;;11.50;99.90;;;;;;5048484;28;20444;-80
2021/05/26 04:35:15;;;;;;;3.53;2.20;;;11.50;99.90;;;;;;5058847;28;20472;-80
2021/05/26 04:37:42;;;;;;;3.73;2.30;;;11.50;99.90;;;;;;5056424;28;20496;-80
2021/05/26 04:40:09;;;;;;;2.53;2.10;;;11.40;99.90;;;;;;5054462;28;20516;-79
2021/05/26 04:42:36;;;;;;;3.33;3.03;;;11.50;99.90;;;;;;5061857;28;20520;-78
2021/05/26 04:45:03;;;;;;;2.60;2.20;;;11.50;99.90;;;;;;5060682;28;20476;-79
2021/05/26 04:47:30;;;;;;;3.83;2.27;;;11.60;99.90;;;;;;5052561;28;20532;-78
2021/05/26 04:49:57;;;;;;;4.07;2.40;;;11.50;99.90;;;;;;5052744;28;20472;-78
2021/05/26 04:52:23;;;;;;;4.10;2.43;;;11.70;99.90;;;;;;5057010;28;20472;-80
2021/05/26 04:54:50;;;;;;;4.00;2.80;;;11.80;99.90;;;;;;5057774;28;20461;-80
2021/05/26 04:57:17;;;;;;;3.60;2.70;;;11.80;99.90;;;;;;5054324;28;20450;-80
2021/05/26 04:59:44;;;;;;;5.10;2.80;;;11.60;99.90;;;;;;5058346;28;20453;-80
2021/05/26 05:02:10;;;;;;;5.13;3.10;;;11.70;99.90;;;;;;5053249;28;20451;-79
2021/05/26 05:04:37;;;;;;;6.63;3.33;;;11.90;99.90;;;;;;5051430;28;20463;-80
2021/05/26 05:07:04;;;;;;;7.27;4.93;;;11.80;99.90;;;;;;5074698;28;20421;-81
2021/05/26 05:09:30;;;;;;;7.27;3.83;;;11.90;99.90;;;;;;5075496;28;20494;-80
2021/05/26 05:11:57;;;;;;;4.40;3.23;;;11.90;99.90;;;;;;5073312;28;20438;-78
2021/05/26 05:14:24;;;;;;;5.37;3.87;;;11.90;99.90;;;;;;5043102;28;20567;-78
2021/05/26 05:16:50;;;;;;;4.13;3.40;;;11.90;99.90;;;;;;5058790;28;20456;-81
2021/05/26 05:19:17;;;;;;;3.07;2.50;;;11.90;99.90;;;;;;5059339;28;20452;-81
2021/05/26 05:21:44;;;;;;;5.53;2.90;;;11.90;99.90;;;;;;5060624;28;20440;-80
2021/05/26 05:24:10;;;;;;;3.80;3.20;;;11.90;99.90;;;;;;5054029;28;20555;-79
2021/05/26 05:26:37;;;;;;;4.53;4.10;;;11.90;99.90;;;;;;5069777;28;20436;-81
2021/05/26 05:29:04;;;;;;;4.10;3.17;;;11.80;99.90;;;;;;5067652;28;20520;-81
2021/05/26 05:31:31;;;;;;;5.07;3.77;;;11.80;99.90;;;;;;5044787;28;20433;-80
2021/05/26 05:33:58;;;;;;;6.80;4.33;;;12.00;99.90;;;;;;5060375;28;20464;-80
2021/05/26 05:36:25;;;;;;;3.93;3.20;;;12.20;99.90;;;;;;5040602;28;20448;-80
2021/05/26 05:38:52;;;;;;;6.50;3.37;;;12.20;99.90;;;;;;5045578;28;20651;-79
2021/05/26 05:41:18;;;;;;;4.53;3.23;;;12.20;99.90;;;;;;5045529;28;20456;-80
2021/05/26 05:43:45;;;;;;;4.10;2.50;;;12.20;99.90;;;;;;5058068;28;20468;-79
2021/05/26 05:46:12;;;;;;;2.73;2.53;;;12.10;99.90;;;;;;5066365;28;20447;-79
2021/05/26 05:48:39;;;;;;;3.17;2.33;;;12.20;99.90;;;;;;5062768;28;20459;-80
2021/05/26 05:51:06;;;;;;;3.87;2.13;;;12.30;99.90;;;;;;5060196;28;20574;-80
2021/05/26 05:53:33;;;;;;;2.77;2.40;;;12.50;99.90;;;;;;5044895;28;20471;-79
2021/05/26 05:56:01;;;;;;;1.80;1.70;;;12.60;99.90;;;;;;5053915;28;20527;-80
2021/05/26 05:58:28;;;;;;;1.63;1.47;;;12.70;99.90;;;;;;5043617;28;20970;-79
2021/05/26 06:00:55;;;;;;;1.60;1.20;;;12.50;99.90;;;;;;5046555;28;20792;-81
2021/05/26 06:03:22;;;;;;;1.70;1.60;;;12.30;99.90;;;;;;5046824;28;20440;-81
2021/05/26 06:05:48;;;;;;;1.97;1.50;;;12.40;99.90;;;;;;5063795;28;20451;-81
2021/05/26 06:08:15;;;;;;;1.50;1.40;;;12.50;99.90;;;;;;5053018;28;20482;-80
2021/05/26 06:10:42;;;;;;;1.50;1.13;;;12.50;99.90;;;;;;5054904;28;20473;-81
2021/05/26 06:13:09;;;;;;;1.60;1.50;;;12.50;99.90;;;;;;5055138;28;20917;-79
2021/05/26 06:15:36;;;;;;;1.60;1.50;;;12.50;99.90;;;;;;5050675;28;20461;-80
2021/05/26 06:18:03;;;;;;;6.40;4.93;;;12.40;99.90;;;;;;5055034;28;20441;-81
2021/05/26 06:20:30;;;;;;;2.30;1.40;;;12.50;99.90;;;;;;5048532;28;20825;-81
2021/05/26 06:22:57;;;;;;;2.77;1.60;;;12.50;99.90;;;;;;5044096;28;20964;-82
2021/05/26 06:25:24;;;;;;;1.60;1.50;;;12.30;99.90;;;;;;5050748;28;20990;-81
2021/05/26 06:27:51;;;;;;;1.20;1.10;;;12.30;99.90;;;;;;5038009;28;20491;-79
2021/05/26 06:30:18;;;;;;;1.70;1.27;;;12.30;99.90;;;;;;5059976;28;20472;-79
2021/05/26 06:32:44;;;;;;;1.43;1.33;;;12.60;99.90;;;;;;5053882;28;20723;-82
2021/05/26 06:35:12;;;;;;;1.73;1.60;;;12.50;99.90;;;;;;5050781;28;20540;-81
2021/05/26 06:37:38;;;;;;;1.50;1.23;;;12.20;99.90;;;;;;5059806;28;20896;-81
2021/05/26 06:40:06;;;;;;;1.70;1.50;;;12.40;99.90;;;;;;5050427;28;20453;-80
2021/05/26 06:42:34;;;;;;;1.80;1.47;;;12.60;99.90;;;;;;5054730;28;20452;-80
2021/05/26 06:45:04;;;;;;;2.40;1.67;;;12.50;99.90;;;;;;5054450;28;20572;-80
2021/05/26 06:47:30;;;;;;;1.90;1.67;;;12.60;99.90;;;;;;5035391;28;20450;-80
2021/05/26 06:49:58;;;;;;;1.93;1.43;;;12.60;99.90;;;;;;5064738;28;20481;-79
2021/05/26 06:52:24;;;;;;;2.17;1.30;;;12.50;99.90;;;;;;5053104;28;20454;-79
2021/05/26 06:54:51;;;;;;;1.47;1.37;;;12.50;99.90;;;;;;5052701;28;20528;-80
2021/05/26 06:57:18;;;;;;;2.43;1.90;;;12.70;99.90;;;;;;5056000;28;20441;-77
2021/05/26 06:59:45;;;;;;;2.57;1.57;;;12.70;99.90;;;;;;5038772;28;20533;-81
2021/05/26 07:02:11;;;;;;;1.93;1.83;;;12.70;99.90;;;;;;5065431;28;20455;-80
2021/05/26 07:04:38;;;;;;;2.00;1.57;;;12.40;99.90;;;;;;5054664;28;20457;-79
2021/05/26 07:07:05;;;;;;;8.07;6.13;;;12.60;99.90;;;;;;5073327;28;20452;-78
2021/05/26 07:09:32;;;;;;;3.70;2.83;;;12.80;99.90;;;;;;5065442;28;20786;-80
2021/05/26 07:11:58;;;;;;;1.70;1.30;;;12.90;99.90;;;;;;5053171;28;20449;-79
2021/05/26 07:14:26;;;;;;;2.13;1.70;;;12.90;99.90;;;;;;5041295;28;20581;-80
2021/05/26 07:16:53;;;;;;;3.70;1.70;;;12.60;99.90;;;;;;5067529;28;20528;-79
2021/05/26 07:19:20;;;;;;;1.80;1.43;;;12.50;99.90;;;;;;5043646;28;20465;-80
2021/05/26 07:21:47;;;;;;;3.43;3.00;;;12.80;99.90;;;;;;5045969;28;20469;-78
2021/05/26 07:24:15;;;;;;;2.20;1.37;;;12.80;99.90;;;;;;5046912;28;20457;-80
2021/05/26 07:26:41;;;;;;;1.50;1.40;;;12.90;99.90;;;;;;5045312;28;20449;-79
2021/05/26 07:29:09;;;;;;;1.47;1.03;;;13.10;99.80;;;;;;5038838;28;20468;-78
2021/05/26 07:31:35;;;;;;;1.63;1.30;;;12.80;99.90;;;;;;5058228;28;20480;-79
2021/05/26 07:34:02;;;;;;;2.43;1.60;;;12.70;99.90;;;;;;5058097;28;20461;-82
2021/05/26 07:36:29;;;;;;;3.77;1.37;;;12.80;99.90;;;;;;5040289;28;20531;-79
2021/05/26 07:38:56;;;;;;;2.90;1.57;;;12.70;99.90;;;;;;5060464;28;20449;-81
2021/05/26 07:41:23;;;;;;;2.10;1.80;;;12.70;99.90;;;;;;5077207;28;20440;-81
2021/05/26 07:43:49;;;;;;;2.10;1.77;;;12.70;99.90;;;;;;5045006;28;20464;-81
2021/05/26 07:46:16;;;;;;;1.77;1.67;;;13.40;99.20;;;;;;5073574;28;20449;-82
2021/05/26 07:48:43;;;;;;;1.97;1.60;;;13.30;98.80;;;;;;5068653;28;20441;-81
2021/05/26 07:51:15;;;;;;;2.70;2.10;;;13.50;97.90;;;;;;5062719;28;20475;-79
2021/05/26 07:53:41;;;;;;;3.17;2.23;;;13.60;97.70;;;;;;5052594;28;20547;-79
2021/05/26 07:56:08;;;;;;;2.30;1.80;;;13.60;97.80;;;;;;5053976;28;20449;-78
2021/05/26 07:58:35;;;;;;;5.10;2.10;;;13.70;98.80;;;;;;5060853;28;20516;-81
2021/05/26 08:01:02;;;;;;;2.40;1.60;;;13.80;98.70;;;;;;5055662;28;20521;-78
2021/05/26 08:03:28;;;;;;;2.97;1.63;;;13.80;97.80;;;;;;5048583;28;20446;-80
2021/05/26 08:05:55;;;;;;;2.60;1.23;;;13.50;97.40;;;;;;5056600;28;20524;-79
2021/05/26 08:08:22;;;;;;;1.70;1.60;;;13.30;98.60;;;;;;5050524;28;20467;-80
2021/05/26 08:10:49;;;;;;;1.63;1.53;;;13.50;99.10;;;;;;5050980;28;20490;-81
2021/05/26 08:13:16;;;;;;;2.07;1.23;;;13.70;99.20;;;;;;5046039;28;20480;-80
2021/05/26 08:15:43;;;;;;;1.40;1.30;;;13.60;98.70;;;;;;5059352;28;20535;-80
2021/05/26 08:18:13;;;;;;;1.50;1.33;;;13.70;98.70;;;;;;5062846;28;20446;-82
2021/05/26 08:20:40;;;;;;;0.90;0.90;;;13.50;98.90;;;;;;5056844;28;20445;-81
2021/05/26 08:23:07;;;;;;;2.70;0.93;;;13.50;99.20;;;;;;5044314;28;20488;-80
2021/05/26 08:25:34;;;;;;;1.30;1.20;;;13.30;99.10;;;;;;5050928;28;20480;-81
2021/05/26 08:28:02;;;;;;;1.67;1.57;;;13.10;99.40;;;;;;5038749;28;20436;-78
2021/05/26 08:30:29;;;;;;;1.30;1.20;;;12.90;99.90;;;;;;5028658;28;20478;-79
2021/05/26 08:32:56;;;;;;;1.80;1.17;;;13.00;99.90;;;;;;5059350;28;20456;-78
2021/05/26 08:35:22;;;;;;;1.83;1.23;;;13.00;99.40;;;;;;5043317;28;20496;-81
2021/05/26 08:37:49;;;;;;;1.23;1.13;;;13.10;99.50;;;;;;5045024;28;20442;-81
2021/05/26 08:40:18;;;;;;;2.10;1.20;;;13.00;99.90;;;;;;5046289;28;20453;-81
2021/05/26 08:42:46;;;;;;;1.93;1.80;;;13.00;99.90;;;;;;5049668;28;20539;-80
2021/05/26 08:45:14;;;;;;;3.10;1.20;;;13.00;99.90;;;;;;5051633;28;20464;-80
2021/05/26 08:47:42;;;;;;;1.43;1.10;;;13.10;99.90;;;;;;5060263;28;20448;-79
2021/05/26 08:50:09;;;;;;;1.40;1.30;;;13.70;99.60;;;;;;5028807;28;20517;-80
2021/05/26 08:52:36;;;;;;;1.00;0.97;;;13.60;99.00;;;;;;5032397;28;20469;-81
2021/05/26 08:55:03;;;;;;;5.10;2.20;;;13.40;99.40;;;;;;5042161;28;20480;-80
2021/05/26 08:57:30;;;;;;;1.70;1.60;;;13.40;99.80;;;;;;5049623;28;20505;-80
2021/05/26 08:59:57;;;;;;;1.93;1.13;;;13.50;99.90;;;;;;5039422;28;20465;-81
2021/05/26 09:02:24;;;;;;;2.23;2.00;;;13.80;99.10;;;;;;5050115;28;20442;-80
2021/05/26 09:04:50;;;;;;;2.60;1.23;;;13.90;98.60;;;;;;5050257;28;20500;-81
2021/05/26 09:07:19;;;;;;;1.07;0.93;;;14.60;96.60;;;;;;5055857;28;20454;-79
2021/05/26 09:09:50;;;;;;;2.70;1.70;;;14.60;95.60;;;;;;5050187;28;20465;-82
2021/05/26 09:12:37;;;;;;;1.43;1.33;;;14.60;95.60;;;;;;5053971;28;20456;-81
2021/05/26 09:15:19;;;;;;;2.47;1.00;;;14.50;95.40;;;;;;5042935;28;20519;-82
2021/05/26 09:18:00;;;;;;;1.10;0.90;;;14.30;95.80;;;;;;5061859;28;20515;-80
2021/05/26 09:20:31;;;;;;;1.10;1.00;;;14.20;95.90;;;;;;5059622;28;20949;-79
2021/05/26 09:23:09;;;;;;;3.63;1.30;;;14.00;96.00;;;;;;5062736;28;20435;-79
2021/05/26 09:25:51;;;;;;;1.53;1.13;;;13.70;97.00;;;;;;5057030;28;21001;-79
2021/05/26 09:28:29;;;;;;;1.20;0.90;;;13.40;97.90;;;;;;5051953;28;20451;-79
2021/05/26 09:31:07;;;;;;;1.17;0.90;;;13.50;98.50;;;;;;5062997;28;20555;-81
2021/05/26 09:33:44;;;;;;;1.97;0.90;;;13.50;98.60;;;;;;5046531;28;20440;-81
2021/05/26 09:36:20;;;;;;;1.83;0.90;;;13.90;97.80;;;;;;5057014;28;21114;-80
2021/05/26 09:38:51;;;;;;;1.10;0.70;;;13.80;97.50;;;;;;5059446;28;21221;-80
2021/05/26 09:41:25;;;;;;;0.63;0.63;;;13.90;97.80;;;;;;5060989;28;20449;-80
2021/05/26 09:43:52;;;;;;;3.33;1.20;;;14.60;96.30;;;;;;5057327;28;20474;-80
2021/05/26 09:46:27;;;;;;;0.87;0.80;;;14.80;95.70;;;;;;5042040;28;20484;-80
2021/05/26 09:49:07;;;;;;;1.50;0.80;;;14.60;95.70;;;;;;5059708;28;20448;-80
2021/05/26 09:51:36;;;;;;;1.23;1.00;;;14.20;96.70;;;;;;5059708;28;20547;-81
2021/05/26 09:54:15;;;;;;;2.10;1.00;;;14.00;97.50;;;;;;5046190;28;20465;-79
2021/05/26 09:56:44;;;;;;;1.00;0.90;;;14.00;98.40;;;;;;5059200;28;20471;-78
2021/05/26 09:59:12;;;;;;;1.10;1.00;;;14.00;98.70;;;;;;5050102;28;20497;-80
2021/05/26 10:01:40;;;;;;;1.10;1.00;;;14.60;97.10;;;;;;5054815;28;20457;-80
2021/05/26 10:04:07;;;;;;;2.63;1.20;;;14.70;96.80;;;;;;5077014;28;20460;-80
2021/05/26 10:06:38;;;;;;;2.00;1.30;;;14.70;97.40;;;;;;5074736;28;20436;-80
2021/05/26 10:09:08;;;;;;;1.87;1.43;;;14.60;97.90;;;;;;5078543;28;20455;-82
2021/05/26 10:11:35;;;;;;;1.93;1.57;;;14.60;97.70;;;;;;5078755;28;20456;-81
2021/05/26 10:14:07;;;;;;;1.63;1.43;;;14.50;97.20;;;;;;5079103;28;20472;-81
2021/05/26 10:16:37;;;;;;;1.77;1.60;;;14.40;97.80;;;;;;5076934;28;20427;-79
2021/05/26 10:19:05;;;;;;;2.53;1.50;;;14.30;98.20;;;;;;5070971;28;20439;-81
2021/05/26 10:21:33;;;;;;;2.23;1.40;;;14.40;98.00;;;;;;5068179;28;20456;-78
2021/05/26 10:24:05;;;;;;;2.37;1.30;;;14.30;98.00;;;;;;5050830;28;20475;-80
2021/05/26 10:26:50;;;;;;;13.97;12.43;;;14.10;98.80;;;;;;5048125;28;20464;-80
2021/05/26 10:29:29;;;;;;;4.10;3.40;;;14.40;99.30;;;;;;5067902;28;20462;-83
2021/05/26 10:32:08;;;;;;;1.63;1.37;;;14.40;98.90;;;;;;5068504;28;20512;-81
2021/05/26 10:34:49;;;;;;;1.80;1.70;;;14.30;99.90;;;;;;5070704;28;20456;-80
2021/05/26 10:37:26;;;;;;;1.50;1.20;;;14.50;99.90;;;;;;5073492;28;20426;-82
2021/05/26 10:39:54;;;;;;;2.20;1.10;;;14.60;98.70;;;;;;5074011;28;20535;-80
2021/05/26 10:42:29;;;;;;;2.00;1.10;;;14.50;98.80;;;;;;5053047;28;20452;-79
2021/05/26 10:45:04;;;;;;;2.10;1.30;;;14.60;98.30;;;;;;5071805;28;20563;-80
2021/05/26 10:47:37;;;;;;;1.20;1.10;;;14.50;98.00;;;;;;5066711;28;20455;-81
2021/05/26 10:50:15;;;;;;;1.63;1.53;;;14.40;98.60;;;;;;5073286;28;20464;-81
2021/05/26 10:52:54;;;;;;;2.50;1.37;;;14.50;99.30;;;;;;5040340;28;20440;-79
2021/05/26 10:55:39;;;;;;;1.73;1.20;;;14.80;97.70;;;;;;5065193;28;20835;-79
2021/05/26 10:58:17;;;;;;;1.60;1.47;;;14.80;97.60;;;;;;5049044;28;20468;-82
2021/05/26 11:00:50;;;;;;;1.57;1.00;;;14.80;98.60;;;;;;5069148;28;20866;-81
2021/05/26 11:03:27;;;;;;;1.17;1.07;;;14.60;98.40;;;;;;5070129;28;20455;-79
2021/05/26 11:05:58;;;;;;;1.60;1.23;;;14.40;98.80;;;;;;5073174;28;20456;-80
2021/05/26 11:08:28;;;;;;;1.50;1.20;;;14.20;99.90;;;;;;5056767;28;20434;-79
2021/05/26 11:10:56;;;;;;;1.53;1.30;;;14.00;99.90;;;;;;5053569;28;20481;-81
2021/05/26 11:13:25;;;;;;;1.20;1.10;;;14.10;99.90;;;;;;5067248;28;20444;-81
2021/05/26 11:15:58;;;;;;;3.30;2.10;;;14.20;99.90;;;;;;5054973;28;20492;-81
2021/05/26 11:20:53;;;;;;;1.53;1.43;;;14.80;99.60;;;;;;5075845;28;20448;-81
2021/05/26 11:23:20;;;;;;;3.60;1.77;;;14.90;99.10;;;;;;5053020;28;20452;-81
2021/05/26 11:25:54;;;;;;;4.63;1.90;;;14.70;98.60;;;;;;5064251;28;20444;-80
2021/05/26 11:28:25;;;;;;;2.50;1.47;;;14.50;99.90;;;;;;5071100;28;20509;-81
2021/05/26 11:31:04;;;;;;;4.77;1.50;;;14.40;99.90;;;;;;5074494;28;20472;-82
2021/05/26 11:33:31;;;;;;;1.60;1.50;;;14.20;99.90;;;;;;5039747;28;20433;-81
2021/05/26 11:36:03;;;;;;;3.87;2.60;;;14.00;99.90;;;;;;5057446;28;20503;-79
2021/05/26 11:38:31;;;;;;;2.60;1.93;;;14.00;99.90;;;;;;5070765;28;20436;-80
2021/05/26 11:41:00;;;;;;;2.07;1.90;;;14.00;99.90;;;;;;5064112;28;20477;-80
2021/05/26 11:43:32;;;;;;;2.90;2.20;;;14.00;99.90;;;;;;5036132;28;20440;-81
2021/05/26 11:46:08;;;;;;;3.10;2.80;;;14.20;99.90;;;;;;5046691;28;20448;-80
2021/05/26 11:48:35;;;;;;;6.33;3.77;;;14.20;99.90;;;;;;5061498;28;20512;-82
2021/05/26 11:51:03;;;;;;;5.00;3.07;;;14.10;99.90;;;;;;5056075;28;20483;-82
2021/05/26 11:53:30;;;;;;;8.33;2.90;;;14.00;99.90;;;;;;5039522;28;20453;-81
2021/05/26 11:56:01;;;;;;;4.63;2.70;;;13.90;99.90;;;;;;5041575;28;20463;-80
2021/05/26 11:58:40;;;;;;;3.17;2.63;;;14.30;99.90;;;;;;5054770;28;20516;-81
2021/05/26 12:01:12;;;;;;;2.63;2.30;;;14.20;99.90;;;;;;5059400;28;20448;-81
2021/05/26 12:03:39;;;;;;;2.73;2.20;;;13.90;99.90;;;;;;5059592;28;20482;-81
2021/05/26 12:06:06;;;;;;;2.33;2.00;;;13.90;99.90;;;;;;5058697;28;20440;-80
2021/05/26 12:08:39;;;;;;;1.87;1.50;;;13.80;99.90;;;;;;5055205;28;20446;-82
2021/05/26 12:11:09;;;;;;;3.60;1.37;;;14.50;99.90;;;;;;5042305;28;20474;-80
2021/05/26 12:13:39;;;;;;;2.07;1.73;;;14.70;99.90;;;;;;5060379;28;20456;-81
2021/05/26 12:16:19;;;;;;;4.03;3.30;;;14.70;99.90;;;;;;5057737;28;20448;-81
2021/05/26 12:18:52;;;;;;;3.70;1.80;;;14.40;99.90;;;;;;5022953;28;20469;-82
2021/05/26 12:21:23;;;;;;;2.30;1.90;;;14.30;99.90;;;;;;5045323;28;20998;-81
2021/05/26 12:23:58;;;;;;;2.23;1.50;;;14.20;99.90;;;;;;5040869;28;21039;-82
2021/05/26 12:26:33;;;;;;;1.63;1.13;;;14.20;99.90;;;;;;4679079;28;10000050;-80
2021/05/26 12:29:10;;;;;;;1.80;1.30;;;14.20;99.90;;;;;;5046703;28;20539;-81
2021/05/26 12:31:39;;;;;;;1.70;1.37;;;14.20;99.90;;;;;;5049808;28;20468;-81
2021/05/26 12:34:14;;;;;;;5.17;1.30;;;14.50;99.90;;;;;;5034668;28;20461;-81
2021/05/26 12:36:56;;;;;;;1.50;1.40;;;14.50;99.90;;;;;;5039694;28;20509;-81
2021/05/26 12:39:24;;;;;;;1.23;1.00;;;15.40;99.90;;;;;;5046767;28;20456;-81
2021/05/26 12:41:52;;;;;;;1.47;1.37;;;16.20;99.90;;;;;;5047156;28;21027;-80
2021/05/26 12:44:24;;;;;;;1.80;1.20;;;16.90;99.90;;;;;;5045114;28;20936;-80
2021/05/26 12:46:56;;;;;;;1.40;1.30;;;16.90;99.90;;;;;;5043363;28;20468;-82
2021/05/26 12:49:29;;;;;;;1.83;1.53;;;16.90;99.80;;;;;;5044349;28;20453;-81
2021/05/26 12:51:57;;;;;;;1.37;1.27;;;16.70;98.80;;;;;;5044280;28;20559;-79
2021/05/26 12:54:24;;;;;;;2.20;1.33;;;16.40;98.50;;;;;;5040970;28;20464;-80
2021/05/26 12:57:08;;;;;;;1.50;1.20;;;16.10;99.30;;;;;;5035610;28;20551;-79